Terminal Aerodrome Forecast
Issued by NWS Greer, SC

Home | Current Version | Previous Version | Text Only | Print | Product List | Glossary On
Versions: 1 2 3 4 5 6 7 8 9 10 11 12 13 14 15 16 17 18 19 20 21 22 23 24 25 26 27 28
000
FTUS42 KGSP 261120
TAFAVL
TAF
KAVL 261120Z 2612/2712 18003KT P6SM SCT050 BKN120
     FM261600 18006KT P6SM VCTS BKN050CB
     FM262100 18004KT P6SM BKN050 PROB30 2621/2702 4SM -TSRA
      OVC025CB
     FM270200 00000KT P6SM BKN070
     FM270900 00000KT 5SM BR BKN070=

USA.gov is the U.S. government's official web portal to all federal, state and local government web resources and services.